TimeEST,TemperatureF,Dew PointF,Humidity,Sea Level PressureIn,VisibilityMPH,Wind Direction,Wind SpeedMPH,Gust SpeedMPH,PrecipitationIn,Events,Conditions,WindDirDegrees,DateUTC
12:53 AM,3.0,-5.1,69,30.61,10.0,Variable,5.8,-,N/A,,Clear,0,2014-01-24 05:53:00
1:53 AM,1.9,-5.1,72,30.61,10.0,West,5.8,-,N/A,,Unknown,260,2014-01-24 06:53:00
2:53 AM,1.9,-5.1,72,30.63,10.0,West,5.8,-,N/A,,Clear,260,2014-01-24 07:53:00
3:53 AM,1.0,-6.0,72,30.65,10.0,Variable,3.5,-,N/A,,Clear,0,2014-01-24 08:53:00
4:53 AM,1.0,-6.0,72,30.64,10.0,SW,4.6,-,N/A,,Clear,230,2014-01-24 09:53:00
5:53 AM,-0.9,-6.0,79,30.64,10.0,SSW,5.8,-,N/A,,Clear,210,2014-01-24 10:53:00
6:53 AM,-0.9,-7.1,75,30.64,10.0,SSW,8.1,-,N/A,,Clear,200,2014-01-24 11:53:00
7:53 AM,-0.0,-6.0,76,30.63,8.0,SSW,5.8,-,N/A,,Overcast,200,2014-01-24 12:53:00
8:53 AM,1.0,-4.0,79,30.63,10.0,SSW,6.9,-,N/A,,Mostly Cloudy,200,2014-01-24 13:53:00
9:53 AM,3.9,-2.9,73,30.61,7.0,SSW,8.1,-,N/A,,Mostly Cloudy,200,2014-01-24 14:53:00
10:53 AM,5.0,-2.9,70,30.53,7.0,SSW,11.5,18.4,N/A,,Mostly Cloudy,210,2014-01-24 15:53:00
11:53 AM,8.1,-0.9,67,30.55,10.0,South,13.8,18.4,N/A,,Mostly Cloudy,190,2014-01-24 16:53:00
12:36 PM,9.0,-0.9,64,30.45,10.0,South,15.0,21.9,N/A,,Scattered Clouds,180,2014-01-24 17:36:00
12:43 PM,9.0,-0.9,64,30.44,10.0,SSW,11.5,19.6,N/A,,Mostly Cloudy,210,2014-01-24 17:43:00
12:53 PM,9.0,-0.9,64,30.49,10.0,SSW,12.7,21.9,N/A,,Mostly Cloudy,210,2014-01-24 17:53:00
1:00 PM,10.0,-0.9,61,30.43,10.0,SSW,15.0,20.7,N/A,,Scattered Clouds,210,2014-01-24 18:00:00
1:53 PM,12.9,-0.0,56,30.44,10.0,South,16.1,-,N/A,,Partly Cloudy,190,2014-01-24 18:53:00
2:48 PM,14.0,-0.4,53,30.34,1.2,South,18.4,25.3,N/A,,Haze,190,2014-01-24 19:48:00
2:53 PM,14.0,-0.0,54,30.38,5.0,South,12.7,25.3,N/A,,Haze,180,2014-01-24 19:53:00
3:53 PM,16.0,-0.9,47,30.33,10.0,SW,10.4,23.0,N/A,,Clear,220,2014-01-24 20:53:00
4:53 PM,16.0,-0.9,47,30.29,10.0,SSW,10.4,-,N/A,,Clear,200,2014-01-24 21:53:00
5:53 PM,15.1,-0.9,49,30.26,10.0,SSW,10.4,-,N/A,,Clear,200,2014-01-24 22:53:00
6:53 PM,15.1,-2.0,47,30.19,10.0,South,11.5,-,N/A,,Clear,170,2014-01-24 23:53:00
7:53 PM,16.0,-0.9,47,30.14,10.0,SSW,9.2,-,N/A,,Clear,200,2014-01-25 00:53:00
8:53 PM,16.0,-0.9,47,30.09,-9999.0,North,-9999.0,-,N/A,,Unknown,0,2014-01-25 01:53:00
9:53 PM,17.1,-0.0,47,30.02,10.0,South,13.8,-,N/A,,Clear,190,2014-01-25 02:53:00
10:53 PM,19.9,-0.0,42,29.97,10.0,SW,13.8,28.8,N/A,,Clear,220,2014-01-25 03:53:00
11:53 PM,21.0,-0.9,38,29.96,10.0,SW,12.7,20.7,N/A,,Unknown,230,2014-01-25 04:53:00